sensor_id;sensor_type;location;lat;lon;timestamp;P1;durP1;ratioP1;P2;durP2;ratioP2
2558;SDS011;1289;53.488;10.006;2022-08-21T00:01:45;8.37;;;6.70;;
2558;SDS011;1289;53.488;10.006;2022-08-21T00:04:12;5.83;;;5.23;;
2558;SDS011;1289;53.488;10.006;2022-08-21T00:06:40;7.00;;;6.37;;
2558;SDS011;1289;53.488;10.006;2022-08-21T00:09:07;6.47;;;5.87;;
2558;SDS011;1289;53.488;10.006;2022-08-21T00:11:35;6.70;;;6.00;;
2558;SDS011;1289;53.488;10.006;2022-08-21T00:14:02;9.00;;;6.77;;
2558;SDS011;1289;53.488;10.006;2022-08-21T00:16:30;6.57;;;5.90;;
2558;SDS011;1289;53.488;10.006;2022-08-21T00:18:57;6.40;;;5.80;;
2558;SDS011;1289;53.488;10.006;2022-08-21T00:21:24;6.30;;;5.70;;
2558;SDS011;1289;53.488;10.006;2022-08-21T00:23:52;6.70;;;6.07;;
2558;SDS011;1289;53.488;10.006;2022-08-21T00:26:19;6.97;;;6.33;;
2558;SDS011;1289;53.488;10.006;2022-08-21T00:28:46;6.80;;;6.20;;
2558;SDS011;1289;53.488;10.006;2022-08-21T00:31:14;6.87;;;6.00;;
2558;SDS011;1289;53.488;10.006;2022-08-21T00:33:40;7.00;;;6.20;;
2558;SDS011;1289;53.488;10.006;2022-08-21T00:36:07;6.70;;;6.10;;
2558;SDS011;1289;53.488;10.006;2022-08-21T00:38:35;6.63;;;6.03;;
2558;SDS011;1289;53.488;10.006;2022-08-21T00:41:04;7.17;;;6.00;;
2558;SDS011;1289;53.488;10.006;2022-08-21T00:43:33;6.90;;;6.30;;
2558;SDS011;1289;53.488;10.006;2022-08-21T00:46:02;6.57;;;5.97;;
2558;SDS011;1289;53.488;10.006;2022-08-21T00:48:30;7.27;;;6.27;;
2558;SDS011;1289;53.488;10.006;2022-08-21T00:50:58;7.00;;;6.40;;
2558;SDS011;1289;53.488;10.006;2022-08-21T00:53:28;8.87;;;6.43;;
2558;SDS011;1289;53.488;10.006;2022-08-21T00:55:56;6.43;;;5.93;;
2558;SDS011;1289;53.488;10.006;2022-08-21T00:58:25;6.87;;;6.20;;
2558;SDS011;1289;53.488;10.006;2022-08-21T01:00:53;7.00;;;6.37;;
2558;SDS011;1289;53.488;10.006;2022-08-21T01:03:21;7.23;;;6.53;;
2558;SDS011;1289;53.488;10.006;2022-08-21T01:05:49;8.33;;;5.87;;
2558;SDS011;1289;53.488;10.006;2022-08-21T01:08:16;8.00;;;6.83;;
2558;SDS011;1289;53.488;10.006;2022-08-21T01:10:44;6.73;;;6.03;;
2558;SDS011;1289;53.488;10.006;2022-08-21T01:13:12;7.50;;;6.50;;
2558;SDS011;1289;53.488;10.006;2022-08-21T01:15:42;6.70;;;6.10;;
2558;SDS011;1289;53.488;10.006;2022-08-21T01:18:10;6.83;;;5.73;;
2558;SDS011;1289;53.488;10.006;2022-08-21T01:20:40;6.67;;;6.07;;
2558;SDS011;1289;53.488;10.006;2022-08-21T01:23:11;6.20;;;5.60;;
2558;SDS011;1289;53.488;10.006;2022-08-21T01:25:38;6.80;;;6.17;;
2558;SDS011;1289;53.488;10.006;2022-08-21T01:28:06;6.43;;;5.93;;
2558;SDS011;1289;53.488;10.006;2022-08-21T01:30:37;6.87;;;6.10;;
2558;SDS011;1289;53.488;10.006;2022-08-21T01:33:05;8.83;;;6.57;;
2558;SDS011;1289;53.488;10.006;2022-08-21T01:35:31;6.87;;;6.17;;
2558;SDS011;1289;53.488;10.006;2022-08-21T01:37:58;6.70;;;6.00;;
2558;SDS011;1289;53.488;10.006;2022-08-21T01:40:27;7.17;;;6.23;;
2558;SDS011;1289;53.488;10.006;2022-08-21T01:42:53;7.60;;;6.20;;
2558;SDS011;1289;53.488;10.006;2022-08-21T01:45:20;7.37;;;6.67;;
2558;SDS011;1289;53.488;10.006;2022-08-21T01:47:47;8.17;;;6.27;;
2558;SDS011;1289;53.488;10.006;2022-08-21T01:50:15;6.27;;;5.73;;
2558;SDS011;1289;53.488;10.006;2022-08-21T01:52:43;7.10;;;5.90;;
2558;SDS011;1289;53.488;10.006;2022-08-21T01:55:11;6.53;;;5.00;;
2558;SDS011;1289;53.488;10.006;2022-08-21T01:57:39;7.07;;;6.20;;
2558;SDS011;1289;53.488;10.006;2022-08-21T02:00:07;6.43;;;5.87;;
2558;SDS011;1289;53.488;10.006;2022-08-21T02:02:39;6.53;;;5.93;;
2558;SDS011;1289;53.488;10.006;2022-08-21T02:05:07;6.33;;;5.77;;
2558;SDS011;1289;53.488;10.006;2022-08-21T02:07:36;5.80;;;5.20;;
2558;SDS011;1289;53.488;10.006;2022-08-21T02:10:04;6.63;;;5.90;;
2558;SDS011;1289;53.488;10.006;2022-08-21T02:12:32;6.00;;;5.50;;
2558;SDS011;1289;53.488;10.006;2022-08-21T02:15:01;6.03;;;5.53;;
2558;SDS011;1289;53.488;10.006;2022-08-21T02:17:36;6.47;;;5.87;;
2558;SDS011;1289;53.488;10.006;2022-08-21T02:20:03;6.10;;;5.10;;
2558;SDS011;1289;53.488;10.006;2022-08-21T02:22:30;7.13;;;6.43;;
2558;SDS011;1289;53.488;10.006;2022-08-21T02:24:57;6.10;;;5.43;;
2558;SDS011;1289;53.488;10.006;2022-08-21T02:27:24;5.90;;;5.00;;
2558;SDS011;1289;53.488;10.006;2022-08-21T02:29:50;8.50;;;5.93;;
2558;SDS011;1289;53.488;10.006;2022-08-21T02:32:19;5.67;;;5.13;;
2558;SDS011;1289;53.488;10.006;2022-08-21T02:34:46;5.97;;;5.47;;
2558;SDS011;1289;53.488;10.006;2022-08-21T02:37:13;5.57;;;5.10;;
2558;SDS011;1289;53.488;10.006;2022-08-21T02:39:40;5.97;;;5.47;;
2558;SDS011;1289;53.488;10.006;2022-08-21T02:42:07;5.70;;;5.20;;
2558;SDS011;1289;53.488;10.006;2022-08-21T02:44:33;7.10;;;6.60;;
2558;SDS011;1289;53.488;10.006;2022-08-21T02:47:00;6.37;;;5.17;;
2558;SDS011;1289;53.488;10.006;2022-08-21T02:49:28;5.97;;;5.37;;
2558;SDS011;1289;53.488;10.006;2022-08-21T02:51:55;6.60;;;6.00;;
2558;SDS011;1289;53.488;10.006;2022-08-21T02:54:21;5.47;;;5.00;;
2558;SDS011;1289;53.488;10.006;2022-08-21T02:56:48;5.50;;;5.07;;
2558;SDS011;1289;53.488;10.006;2022-08-21T02:59:14;5.40;;;4.90;;
2558;SDS011;1289;53.488;10.006;2022-08-21T03:01:41;7.10;;;5.80;;
2558;SDS011;1289;53.488;10.006;2022-08-21T03:04:08;5.50;;;5.10;;
2558;SDS011;1289;53.488;10.006;2022-08-21T03:06:36;5.63;;;5.13;;
2558;SDS011;1289;53.488;10.006;2022-08-21T03:09:03;6.43;;;5.57;;
2558;SDS011;1289;53.488;10.006;2022-08-21T03:11:30;5.63;;;5.13;;
2558;SDS011;1289;53.488;10.006;2022-08-21T03:13:56;5.87;;;5.47;;
2558;SDS011;1289;53.488;10.006;2022-08-21T03:16:23;8.50;;;5.80;;
2558;SDS011;1289;53.488;10.006;2022-08-21T03:18:49;7.17;;;5.27;;
2558;SDS011;1289;53.488;10.006;2022-08-21T03:21:16;6.03;;;5.37;;
2558;SDS011;1289;53.488;10.006;2022-08-21T03:23:45;5.80;;;5.20;;
2558;SDS011;1289;53.488;10.006;2022-08-21T03:26:12;6.47;;;5.87;;
2558;SDS011;1289;53.488;10.006;2022-08-21T03:28:38;5.60;;;5.03;;
2558;SDS011;1289;53.488;10.006;2022-08-21T03:31:05;5.93;;;5.40;;
2558;SDS011;1289;53.488;10.006;2022-08-21T03:33:32;5.57;;;5.07;;
2558;SDS011;1289;53.488;10.006;2022-08-21T03:35:59;6.00;;;5.17;;
2558;SDS011;1289;53.488;10.006;2022-08-21T03:38:28;7.37;;;5.27;;
2558;SDS011;1289;53.488;10.006;2022-08-21T03:40:57;6.07;;;5.47;;
2558;SDS011;1289;53.488;10.006;2022-08-21T03:43:24;5.00;;;4.50;;
2558;SDS011;1289;53.488;10.006;2022-08-21T03:45:50;5.60;;;5.20;;
2558;SDS011;1289;53.488;10.006;2022-08-21T03:48:17;7.37;;;5.10;;
2558;SDS011;1289;53.488;10.006;2022-08-21T03:50:44;5.70;;;5.20;;
2558;SDS011;1289;53.488;10.006;2022-08-21T03:53:12;6.00;;;5.50;;
2558;SDS011;1289;53.488;10.006;2022-08-21T03:55:40;6.20;;;5.60;;
2558;SDS011;1289;53.488;10.006;2022-08-21T03:58:08;6.77;;;5.23;;
2558;SDS011;1289;53.488;10.006;2022-08-21T04:00:34;5.37;;;4.97;;
2558;SDS011;1289;53.488;10.006;2022-08-21T04:03:02;5.60;;;5.10;;
2558;SDS011;1289;53.488;10.006;2022-08-21T04:05:29;8.77;;;6.00;;
2558;SDS011;1289;53.488;10.006;2022-08-21T04:07:56;5.73;;;5.20;;
2558;SDS011;1289;53.488;10.006;2022-08-21T04:10:23;6.40;;;5.80;;
2558;SDS011;1289;53.488;10.006;2022-08-21T04:12:50;6.10;;;5.50;;
2558;SDS011;1289;53.488;10.006;2022-08-21T04:15:20;6.10;;;5.50;;
2558;SDS011;1289;53.488;10.006;2022-08-21T04:17:46;7.13;;;5.17;;
2558;SDS011;1289;53.488;10.006;2022-08-21T04:20:13;6.33;;;5.30;;
2558;SDS011;1289;53.488;10.006;2022-08-21T04:22:40;6.10;;;5.43;;
2558;SDS011;1289;53.488;10.006;2022-08-21T04:25:07;5.83;;;5.17;;
2558;SDS011;1289;53.488;10.006;2022-08-21T04:27:34;5.67;;;5.20;;
2558;SDS011;1289;53.488;10.006;2022-08-21T04:30:00;5.87;;;5.30;;
2558;SDS011;1289;53.488;10.006;2022-08-21T04:32:29;6.70;;;5.20;;
2558;SDS011;1289;53.488;10.006;2022-08-21T04:34:59;5.60;;;5.10;;
2558;SDS011;1289;53.488;10.006;2022-08-21T04:37:26;7.13;;;5.53;;
2558;SDS011;1289;53.488;10.006;2022-08-21T04:39:53;7.20;;;5.60;;
2558;SDS011;1289;53.488;10.006;2022-08-21T04:42:21;5.83;;;5.33;;
2558;SDS011;1289;53.488;10.006;2022-08-21T04:44:48;5.63;;;5.13;;
2558;SDS011;1289;53.488;10.006;2022-08-21T04:47:15;5.63;;;5.23;;
2558;SDS011;1289;53.488;10.006;2022-08-21T04:49:44;5.37;;;4.97;;
2558;SDS011;1289;53.488;10.006;2022-08-21T04:52:11;12.73;;;6.27;;
2558;SDS011;1289;53.488;10.006;2022-08-21T04:54:38;6.30;;;5.70;;
2558;SDS011;1289;53.488;10.006;2022-08-21T04:57:06;6.37;;;5.77;;
2558;SDS011;1289;53.488;10.006;2022-08-21T04:59:35;7.17;;;6.50;;
2558;SDS011;1289;53.488;10.006;2022-08-21T05:02:04;7.50;;;6.27;;
2558;SDS011;1289;53.488;10.006;2022-08-21T05:04:32;7.07;;;6.00;;
2558;SDS011;1289;53.488;10.006;2022-08-21T05:07:04;7.33;;;6.47;;
2558;SDS011;1289;53.488;10.006;2022-08-21T05:09:32;7.50;;;5.93;;
2558;SDS011;1289;53.488;10.006;2022-08-21T05:11:59;6.43;;;5.80;;
2558;SDS011;1289;53.488;10.006;2022-08-21T05:14:27;6.70;;;6.10;;
2558;SDS011;1289;53.488;10.006;2022-08-21T05:16:53;6.50;;;6.00;;
2558;SDS011;1289;53.488;10.006;2022-08-21T05:19:20;5.93;;;5.43;;
2558;SDS011;1289;53.488;10.006;2022-08-21T05:21:47;7.13;;;6.40;;
2558;SDS011;1289;53.488;10.006;2022-08-21T05:24:15;6.87;;;5.17;;
2558;SDS011;1289;53.488;10.006;2022-08-21T05:26:42;8.13;;;5.73;;
2558;SDS011;1289;53.488;10.006;2022-08-21T05:29:10;6.73;;;6.07;;
2558;SDS011;1289;53.488;10.006;2022-08-21T05:31:37;6.00;;;5.30;;
2558;SDS011;1289;53.488;10.006;2022-08-21T05:34:03;6.97;;;4.97;;
2558;SDS011;1289;53.488;10.006;2022-08-21T05:36:30;6.40;;;5.60;;
2558;SDS011;1289;53.488;10.006;2022-08-21T05:38:57;9.30;;;5.97;;
2558;SDS011;1289;53.488;10.006;2022-08-21T05:41:25;5.70;;;5.00;;
2558;SDS011;1289;53.488;10.006;2022-08-21T05:43:52;5.87;;;5.23;;
2558;SDS011;1289;53.488;10.006;2022-08-21T05:46:18;6.57;;;5.87;;
2558;SDS011;1289;53.488;10.006;2022-08-21T05:48:45;6.40;;;5.60;;
2558;SDS011;1289;53.488;10.006;2022-08-21T05:51:12;5.93;;;5.37;;
2558;SDS011;1289;53.488;10.006;2022-08-21T05:53:40;6.70;;;5.30;;
2558;SDS011;1289;53.488;10.006;2022-08-21T05:56:07;5.27;;;4.77;;
2558;SDS011;1289;53.488;10.006;2022-08-21T05:58:35;5.90;;;5.30;;
2558;SDS011;1289;53.488;10.006;2022-08-21T06:01:02;5.50;;;5.00;;
2558;SDS011;1289;53.488;10.006;2022-08-21T06:03:31;5.30;;;4.80;;
2558;SDS011;1289;53.488;10.006;2022-08-21T06:05:59;6.47;;;5.87;;
2558;SDS011;1289;53.488;10.006;2022-08-21T06:08:26;6.03;;;5.50;;
2558;SDS011;1289;53.488;10.006;2022-08-21T06:10:53;5.00;;;4.60;;
2558;SDS011;1289;53.488;10.006;2022-08-21T06:13:20;7.10;;;5.87;;
2558;SDS011;1289;53.488;10.006;2022-08-21T06:15:49;6.07;;;5.47;;
2558;SDS011;1289;53.488;10.006;2022-08-21T06:18:17;5.60;;;5.13;;
2558;SDS011;1289;53.488;10.006;2022-08-21T06:20:43;7.60;;;5.33;;
2558;SDS011;1289;53.488;10.006;2022-08-21T06:23:10;5.40;;;4.90;;
2558;SDS011;1289;53.488;10.006;2022-08-21T06:25:37;5.10;;;4.70;;
2558;SDS011;1289;53.488;10.006;2022-08-21T06:28:07;5.23;;;4.83;;
2558;SDS011;1289;53.488;10.006;2022-08-21T06:30:35;6.17;;;5.67;;
2558;SDS011;1289;53.488;10.006;2022-08-21T06:33:04;5.73;;;4.70;;
2558;SDS011;1289;53.488;10.006;2022-08-21T06:35:31;8.73;;;5.00;;
2558;SDS011;1289;53.488;10.006;2022-08-21T06:37:58;4.80;;;4.40;;
2558;SDS011;1289;53.488;10.006;2022-08-21T06:40:25;4.23;;;3.93;;
2558;SDS011;1289;53.488;10.006;2022-08-21T06:42:52;5.70;;;4.20;;
2558;SDS011;1289;53.488;10.006;2022-08-21T06:45:19;5.47;;;4.60;;
2558;SDS011;1289;53.488;10.006;2022-08-21T06:47:46;4.53;;;4.13;;
2558;SDS011;1289;53.488;10.006;2022-08-21T06:50:14;5.47;;;4.03;;
2558;SDS011;1289;53.488;10.006;2022-08-21T06:52:41;4.90;;;4.40;;
2558;SDS011;1289;53.488;10.006;2022-08-21T06:55:08;5.27;;;4.80;;
2558;SDS011;1289;53.488;10.006;2022-08-21T06:57:36;5.63;;;3.87;;
2558;SDS011;1289;53.488;10.006;2022-08-21T07:00:03;4.67;;;3.83;;
2558;SDS011;1289;53.488;10.006;2022-08-21T07:02:30;4.07;;;3.67;;
2558;SDS011;1289;53.488;10.006;2022-08-21T07:04:58;4.43;;;3.77;;
2558;SDS011;1289;53.488;10.006;2022-08-21T07:07:26;11.00;;;4.67;;
2558;SDS011;1289;53.488;10.006;2022-08-21T07:09:53;5.60;;;3.83;;
2558;SDS011;1289;53.488;10.006;2022-08-21T07:12:20;4.90;;;4.43;;
2558;SDS011;1289;53.488;10.006;2022-08-21T07:14:46;4.00;;;3.40;;
2558;SDS011;1289;53.488;10.006;2022-08-21T07:17:13;3.53;;;3.23;;
2558;SDS011;1289;53.488;10.006;2022-08-21T07:19:40;4.23;;;3.80;;
2558;SDS011;1289;53.488;10.006;2022-08-21T07:22:06;3.87;;;3.57;;
2558;SDS011;1289;53.488;10.006;2022-08-21T07:24:34;4.30;;;3.67;;
2558;SDS011;1289;53.488;10.006;2022-08-21T07:27:01;4.00;;;3.60;;
2558;SDS011;1289;53.488;10.006;2022-08-21T07:29:28;4.57;;;3.90;;
2558;SDS011;1289;53.488;10.006;2022-08-21T07:31:55;6.33;;;3.90;;
2558;SDS011;1289;53.488;10.006;2022-08-21T07:34:22;5.80;;;3.90;;
2558;SDS011;1289;53.488;10.006;2022-08-21T07:36:48;4.43;;;4.03;;
2558;SDS011;1289;53.488;10.006;2022-08-21T07:39:15;4.13;;;3.73;;
2558;SDS011;1289;53.488;10.006;2022-08-21T07:41:43;4.13;;;3.70;;
2558;SDS011;1289;53.488;10.006;2022-08-21T07:44:10;6.10;;;3.57;;
2558;SDS011;1289;53.488;10.006;2022-08-21T07:46:36;4.90;;;3.80;;
2558;SDS011;1289;53.488;10.006;2022-08-21T07:49:03;4.80;;;3.93;;
2558;SDS011;1289;53.488;10.006;2022-08-21T07:51:30;3.70;;;3.40;;
2558;SDS011;1289;53.488;10.006;2022-08-21T07:53:58;4.30;;;3.90;;
2558;SDS011;1289;53.488;10.006;2022-08-21T07:56:26;4.77;;;4.00;;
2558;SDS011;1289;53.488;10.006;2022-08-21T07:58:55;6.40;;;3.50;;
2558;SDS011;1289;53.488;10.006;2022-08-21T08:01:23;4.57;;;2.80;;
2558;SDS011;1289;53.488;10.006;2022-08-21T08:03:50;4.33;;;3.40;;
2558;SDS011;1289;53.488;10.006;2022-08-21T08:06:17;3.80;;;3.50;;
2558;SDS011;1289;53.488;10.006;2022-08-21T08:08:44;3.50;;;3.30;;
2558;SDS011;1289;53.488;10.006;2022-08-21T08:11:12;3.70;;;3.40;;
2558;SDS011;1289;53.488;10.006;2022-08-21T08:13:40;4.93;;;4.20;;
2558;SDS011;1289;53.488;10.006;2022-08-21T08:16:09;3.83;;;3.50;;
2558;SDS011;1289;53.488;10.006;2022-08-21T08:18:36;3.87;;;3.50;;
2558;SDS011;1289;53.488;10.006;2022-08-21T08:21:03;3.97;;;2.73;;
2558;SDS011;1289;53.488;10.006;2022-08-21T08:23:30;3.87;;;3.23;;
2558;SDS011;1289;53.488;10.006;2022-08-21T08:25:57;3.50;;;3.20;;
2558;SDS011;1289;53.488;10.006;2022-08-21T08:28:24;5.10;;;3.60;;
2558;SDS011;1289;53.488;10.006;2022-08-21T08:30:52;3.47;;;3.23;;
2558;SDS011;1289;53.488;10.006;2022-08-21T08:33:20;4.00;;;3.17;;
2558;SDS011;1289;53.488;10.006;2022-08-21T08:35:48;4.03;;;3.70;;
2558;SDS011;1289;53.488;10.006;2022-08-21T08:38:16;4.90;;;3.10;;
2558;SDS011;1289;53.488;10.006;2022-08-21T08:40:46;3.70;;;3.10;;
2558;SDS011;1289;53.488;10.006;2022-08-21T08:43:14;5.80;;;3.27;;
2558;SDS011;1289;53.488;10.006;2022-08-21T08:45:42;3.70;;;3.10;;
2558;SDS011;1289;53.488;10.006;2022-08-21T08:48:12;5.80;;;3.57;;
2558;SDS011;1289;53.488;10.006;2022-08-21T08:50:44;5.30;;;3.40;;
2558;SDS011;1289;53.488;10.006;2022-08-21T08:53:14;5.40;;;3.37;;
2558;SDS011;1289;53.488;10.006;2022-08-21T08:55:45;3.73;;;3.10;;
2558;SDS011;1289;53.488;10.006;2022-08-21T08:58:14;6.13;;;3.40;;
2558;SDS011;1289;53.488;10.006;2022-08-21T09:00:43;4.17;;;3.23;;
2558;SDS011;1289;53.488;10.006;2022-08-21T09:03:11;5.50;;;3.50;;
2558;SDS011;1289;53.488;10.006;2022-08-21T09:05:39;5.03;;;4.53;;
2558;SDS011;1289;53.488;10.006;2022-08-21T09:08:28;4.40;;;3.20;;
2558;SDS011;1289;53.488;10.006;2022-08-21T09:11:04;7.10;;;3.47;;
2558;SDS011;1289;53.488;10.006;2022-08-21T09:13:42;8.33;;;3.63;;
2558;SDS011;1289;53.488;10.006;2022-08-21T09:16:17;4.17;;;3.77;;
2558;SDS011;1289;53.488;10.006;2022-08-21T09:18:52;3.93;;;3.37;;
2558;SDS011;1289;53.488;10.006;2022-08-21T09:21:25;5.10;;;3.57;;
2558;SDS011;1289;53.488;10.006;2022-08-21T09:23:55;3.23;;;2.90;;
2558;SDS011;1289;53.488;10.006;2022-08-21T09:26:27;4.33;;;3.80;;
2558;SDS011;1289;53.488;10.006;2022-08-21T09:28:57;7.10;;;3.43;;
2558;SDS011;1289;53.488;10.006;2022-08-21T09:31:27;7.13;;;3.80;;
2558;SDS011;1289;53.488;10.006;2022-08-21T09:33:59;3.87;;;3.40;;
2558;SDS011;1289;53.488;10.006;2022-08-21T09:36:31;4.27;;;3.43;;
2558;SDS011;1289;53.488;10.006;2022-08-21T09:39:02;5.40;;;3.47;;
2558;SDS011;1289;53.488;10.006;2022-08-21T09:41:29;6.90;;;4.90;;
2558;SDS011;1289;53.488;10.006;2022-08-21T09:44:00;3.67;;;3.23;;
2558;SDS011;1289;53.488;10.006;2022-08-21T09:46:27;8.27;;;3.37;;
2558;SDS011;1289;53.488;10.006;2022-08-21T09:48:55;4.23;;;3.83;;
2558;SDS011;1289;53.488;10.006;2022-08-21T09:51:24;6.00;;;3.70;;
2558;SDS011;1289;53.488;10.006;2022-08-21T09:53:54;6.70;;;3.40;;
2558;SDS011;1289;53.488;10.006;2022-08-21T09:56:26;5.30;;;3.63;;
2558;SDS011;1289;53.488;10.006;2022-08-21T09:59:25;4.17;;;3.77;;
2558;SDS011;1289;53.488;10.006;2022-08-21T10:01:55;4.07;;;3.53;;
2558;SDS011;1289;53.488;10.006;2022-08-21T10:04:26;3.47;;;3.10;;
2558;SDS011;1289;53.488;10.006;2022-08-21T10:06:54;4.13;;;3.70;;
2558;SDS011;1289;53.488;10.006;2022-08-21T10:09:22;5.47;;;3.63;;
2558;SDS011;1289;53.488;10.006;2022-08-21T10:11:53;3.73;;;3.27;;
2558;SDS011;1289;53.488;10.006;2022-08-21T10:14:28;5.70;;;3.50;;
2558;SDS011;1289;53.488;10.006;2022-08-21T10:17:04;3.87;;;3.47;;
2558;SDS011;1289;53.488;10.006;2022-08-21T10:19:34;4.23;;;3.30;;
2558;SDS011;1289;53.488;10.006;2022-08-21T10:22:08;11.70;;;5.17;;
2558;SDS011;1289;53.488;10.006;2022-08-21T10:24:47;3.63;;;3.30;;
2558;SDS011;1289;53.488;10.006;2022-08-21T10:27:20;3.40;;;3.10;;
2558;SDS011;1289;53.488;10.006;2022-08-21T10:29:51;8.10;;;3.83;;
2558;SDS011;1289;53.488;10.006;2022-08-21T10:32:27;7.80;;;3.40;;
2558;SDS011;1289;53.488;10.006;2022-08-21T10:35:02;5.43;;;3.10;;
2558;SDS011;1289;53.488;10.006;2022-08-21T10:37:38;3.60;;;3.30;;
2558;SDS011;1289;53.488;10.006;2022-08-21T10:40:24;4.10;;;3.40;;
2558;SDS011;1289;53.488;10.006;2022-08-21T10:42:57;4.47;;;4.07;;
2558;SDS011;1289;53.488;10.006;2022-08-21T10:45:33;3.40;;;3.00;;
2558;SDS011;1289;53.488;10.006;2022-08-21T10:48:06;10.20;;;2.80;;
2558;SDS011;1289;53.488;10.006;2022-08-21T10:50:35;4.10;;;3.00;;
2558;SDS011;1289;53.488;10.006;2022-08-21T10:53:10;4.77;;;4.00;;
2558;SDS011;1289;53.488;10.006;2022-08-21T10:55:46;3.40;;;3.00;;
2558;SDS011;1289;53.488;10.006;2022-08-21T10:58:18;3.40;;;3.10;;
2558;SDS011;1289;53.488;10.006;2022-08-21T11:00:47;3.90;;;2.80;;
2558;SDS011;1289;53.488;10.006;2022-08-21T11:03:17;7.87;;;3.53;;
2558;SDS011;1289;53.488;10.006;2022-08-21T11:05:48;3.53;;;3.17;;
2558;SDS011;1289;53.488;10.006;2022-08-21T11:08:17;3.40;;;3.10;;
2558;SDS011;1289;53.488;10.006;2022-08-21T11:10:49;3.63;;;3.33;;
2558;SDS011;1289;53.488;10.006;2022-08-21T11:13:19;3.43;;;2.83;;
2558;SDS011;1289;53.488;10.006;2022-08-21T11:15:51;2.50;;;2.30;;
2558;SDS011;1289;53.488;10.006;2022-08-21T11:18:24;4.03;;;3.43;;
2558;SDS011;1289;53.488;10.006;2022-08-21T11:20:56;3.20;;;2.90;;
2558;SDS011;1289;53.488;10.006;2022-08-21T11:23:29;3.10;;;2.80;;
2558;SDS011;1289;53.488;10.006;2022-08-21T11:26:02;3.20;;;2.90;;
2558;SDS011;1289;53.488;10.006;2022-08-21T11:28:34;4.20;;;3.30;;
2558;SDS011;1289;53.488;10.006;2022-08-21T11:31:07;3.20;;;2.90;;
2558;SDS011;1289;53.488;10.006;2022-08-21T11:33:44;3.77;;;3.47;;
2558;SDS011;1289;53.488;10.006;2022-08-21T11:36:18;3.10;;;2.90;;
2558;SDS011;1289;53.488;10.006;2022-08-21T11:38:50;3.00;;;2.70;;
2558;SDS011;1289;53.488;10.006;2022-08-21T11:41:25;3.13;;;2.83;;
2558;SDS011;1289;53.488;10.006;2022-08-21T11:43:57;6.10;;;2.70;;
2558;SDS011;1289;53.488;10.006;2022-08-21T11:46:31;3.17;;;2.90;;
2558;SDS011;1289;53.488;10.006;2022-08-21T11:49:07;3.47;;;3.17;;
2558;SDS011;1289;53.488;10.006;2022-08-21T11:51:50;4.07;;;3.17;;
2558;SDS011;1289;53.488;10.006;2022-08-21T11:54:21;3.70;;;2.97;;
2558;SDS011;1289;53.488;10.006;2022-08-21T11:56:53;3.47;;;3.17;;
2558;SDS011;1289;53.488;10.006;2022-08-21T11:59:26;3.00;;;2.70;;
2558;SDS011;1289;53.488;10.006;2022-08-21T12:01:57;3.30;;;2.70;;
2558;SDS011;1289;53.488;10.006;2022-08-21T12:04:26;3.73;;;3.30;;
2558;SDS011;1289;53.488;10.006;2022-08-21T12:06:54;3.40;;;2.90;;
2558;SDS011;1289;53.488;10.006;2022-08-21T12:09:30;3.20;;;2.93;;
2558;SDS011;1289;53.488;10.006;2022-08-21T12:12:02;4.80;;;3.30;;
2558;SDS011;1289;53.488;10.006;2022-08-21T12:14:42;2.80;;;2.60;;
2558;SDS011;1289;53.488;10.006;2022-08-21T12:17:16;3.80;;;2.63;;
2558;SDS011;1289;53.488;10.006;2022-08-21T12:19:44;3.33;;;3.03;;
2558;SDS011;1289;53.488;10.006;2022-08-21T12:22:13;3.30;;;2.70;;
2558;SDS011;1289;53.488;10.006;2022-08-21T12:24:41;3.80;;;2.90;;
2558;SDS011;1289;53.488;10.006;2022-08-21T12:27:21;3.00;;;2.80;;
2558;SDS011;1289;53.488;10.006;2022-08-21T12:29:55;3.20;;;2.90;;
2558;SDS011;1289;53.488;10.006;2022-08-21T12:32:26;3.30;;;3.00;;
2558;SDS011;1289;53.488;10.006;2022-08-21T12:34:55;3.87;;;2.77;;
2558;SDS011;1289;53.488;10.006;2022-08-21T12:37:27;3.70;;;2.90;;
2558;SDS011;1289;53.488;10.006;2022-08-21T12:40:01;3.70;;;2.77;;
2558;SDS011;1289;53.488;10.006;2022-08-21T12:42:33;3.27;;;2.77;;
2558;SDS011;1289;53.488;10.006;2022-08-21T12:45:06;3.90;;;3.50;;
2558;SDS011;1289;53.488;10.006;2022-08-21T12:47:43;3.73;;;2.80;;
2558;SDS011;1289;53.488;10.006;2022-08-21T12:50:15;3.60;;;3.30;;
2558;SDS011;1289;53.488;10.006;2022-08-21T12:52:44;3.40;;;3.10;;
2558;SDS011;1289;53.488;10.006;2022-08-21T12:55:15;3.70;;;3.40;;
2558;SDS011;1289;53.488;10.006;2022-08-21T12:57:43;4.07;;;3.40;;
2558;SDS011;1289;53.488;10.006;2022-08-21T13:00:11;5.40;;;3.47;;
2558;SDS011;1289;53.488;10.006;2022-08-21T13:02:42;3.70;;;3.40;;
2558;SDS011;1289;53.488;10.006;2022-08-21T13:05:11;5.73;;;3.50;;
2558;SDS011;1289;53.488;10.006;2022-08-21T13:07:42;4.47;;;3.30;;
2558;SDS011;1289;53.488;10.006;2022-08-21T13:10:14;3.40;;;3.10;;
2558;SDS011;1289;53.488;10.006;2022-08-21T13:12:46;5.43;;;3.60;;
2558;SDS011;1289;53.488;10.006;2022-08-21T13:15:13;4.77;;;3.27;;
2558;SDS011;1289;53.488;10.006;2022-08-21T13:17:42;3.80;;;3.37;;
2558;SDS011;1289;53.488;10.006;2022-08-21T13:20:18;3.73;;;3.40;;
2558;SDS011;1289;53.488;10.006;2022-08-21T13:22:47;5.70;;;3.20;;
2558;SDS011;1289;53.488;10.006;2022-08-21T13:25:14;3.50;;;3.20;;
2558;SDS011;1289;53.488;10.006;2022-08-21T13:27:42;2.90;;;2.70;;
2558;SDS011;1289;53.488;10.006;2022-08-21T13:30:17;2.40;;;2.20;;
2558;SDS011;1289;53.488;10.006;2022-08-21T13:32:48;3.53;;;3.23;;
2558;SDS011;1289;53.488;10.006;2022-08-21T13:35:18;3.10;;;2.80;;
2558;SDS011;1289;53.488;10.006;2022-08-21T13:37:47;5.30;;;3.10;;
2558;SDS011;1289;53.488;10.006;2022-08-21T13:40:16;3.23;;;2.90;;
2558;SDS011;1289;53.488;10.006;2022-08-21T13:42:45;3.67;;;2.83;;
2558;SDS011;1289;53.488;10.006;2022-08-21T13:45:18;3.47;;;3.10;;
2558;SDS011;1289;53.488;10.006;2022-08-21T13:47:49;3.93;;;2.90;;
2558;SDS011;1289;53.488;10.006;2022-08-21T13:50:18;4.70;;;3.23;;
2558;SDS011;1289;53.488;10.006;2022-08-21T13:52:53;3.40;;;2.87;;
2558;SDS011;1289;53.488;10.006;2022-08-21T13:55:23;2.83;;;2.53;;
2558;SDS011;1289;53.488;10.006;2022-08-21T13:57:58;2.97;;;2.77;;
2558;SDS011;1289;53.488;10.006;2022-08-21T14:00:28;3.17;;;2.87;;
2558;SDS011;1289;53.488;10.006;2022-08-21T14:03:00;4.27;;;2.77;;
2558;SDS011;1289;53.488;10.006;2022-08-21T14:05:31;3.27;;;2.60;;
2558;SDS011;1289;53.488;10.006;2022-08-21T14:08:01;2.60;;;2.40;;
2558;SDS011;1289;53.488;10.006;2022-08-21T14:10:30;2.80;;;2.60;;
2558;SDS011;1289;53.488;10.006;2022-08-21T14:12:57;2.47;;;2.27;;
2558;SDS011;1289;53.488;10.006;2022-08-21T14:15:28;4.47;;;2.80;;
2558;SDS011;1289;53.488;10.006;2022-08-21T14:18:05;2.87;;;2.67;;
2558;SDS011;1289;53.488;10.006;2022-08-21T14:20:35;4.53;;;3.00;;
2558;SDS011;1289;53.488;10.006;2022-08-21T14:23:02;4.03;;;2.30;;
2558;SDS011;1289;53.488;10.006;2022-08-21T14:25:30;3.03;;;2.83;;
2558;SDS011;1289;53.488;10.006;2022-08-21T14:28:03;3.63;;;3.30;;
2558;SDS011;1289;53.488;10.006;2022-08-21T14:30:34;3.67;;;3.20;;
2558;SDS011;1289;53.488;10.006;2022-08-21T14:33:02;6.63;;;3.00;;
2558;SDS011;1289;53.488;10.006;2022-08-21T14:35:30;3.33;;;3.03;;
2558;SDS011;1289;53.488;10.006;2022-08-21T14:37:57;2.73;;;2.53;;
2558;SDS011;1289;53.488;10.006;2022-08-21T14:40:24;2.87;;;2.57;;
2558;SDS011;1289;53.488;10.006;2022-08-21T14:42:51;3.53;;;2.80;;
2558;SDS011;1289;53.488;10.006;2022-08-21T14:45:20;3.43;;;2.90;;
2558;SDS011;1289;53.488;10.006;2022-08-21T14:47:51;3.93;;;3.00;;
2558;SDS011;1289;53.488;10.006;2022-08-21T14:50:18;3.50;;;2.60;;
2558;SDS011;1289;53.488;10.006;2022-08-21T14:52:45;2.90;;;2.70;;
2558;SDS011;1289;53.488;10.006;2022-08-21T14:55:12;4.07;;;2.63;;
2558;SDS011;1289;53.488;10.006;2022-08-21T14:57:40;4.93;;;2.80;;
2558;SDS011;1289;53.488;10.006;2022-08-21T15:00:09;4.70;;;3.07;;
2558;SDS011;1289;53.488;10.006;2022-08-21T15:02:37;3.20;;;2.47;;
2558;SDS011;1289;53.488;10.006;2022-08-21T15:05:05;4.27;;;3.17;;
2558;SDS011;1289;53.488;10.006;2022-08-21T15:07:32;3.10;;;2.80;;
2558;SDS011;1289;53.488;10.006;2022-08-21T15:09:59;3.30;;;2.60;;
2558;SDS011;1289;53.488;10.006;2022-08-21T15:12:25;4.00;;;3.13;;